sensor_id;sensor_type;location;lat;lon;timestamp;pressure;altitude;pressure_sealevel;temperature;humidity
34566;BME280;20803;42.676;26.348;2023-11-21T00:02:14;98501.94;;;10.26;73.56
34566;BME280;20803;42.676;26.348;2023-11-21T00:04:40;98503.66;;;10.16;74.82
34566;BME280;20803;42.676;26.348;2023-11-21T00:07:05;98500.47;;;10.18;75.01
34566;BME280;20803;42.676;26.348;2023-11-21T00:09:32;98499.94;;;10.27;74.82
34566;BME280;20803;42.676;26.348;2023-11-21T00:11:57;98503.75;;;10.40;74.06
34566;BME280;20803;42.676;26.348;2023-11-21T00:14:24;98494.94;;;10.48;73.44
34566;BME280;20803;42.676;26.348;2023-11-21T00:16:50;98493.66;;;10.53;72.88
34566;BME280;20803;42.676;26.348;2023-11-21T00:19:16;98500.50;;;10.45;74.10
34566;BME280;20803;42.676;26.348;2023-11-21T00:21:42;98496.94;;;10.44;74.34
34566;BME280;20803;42.676;26.348;2023-11-21T00:24:10;98501.59;;;10.54;73.49
34566;BME280;20803;42.676;26.348;2023-11-21T00:26:35;98494.81;;;10.55;73.54
34566;BME280;20803;42.676;26.348;2023-11-21T00:29:03;98503.53;;;10.57;73.33
34566;BME280;20803;42.676;26.348;2023-11-21T00:31:29;98501.13;;;10.60;73.17
34566;BME280;20803;42.676;26.348;2023-11-21T00:33:56;98505.03;;;10.62;73.39
34566;BME280;20803;42.676;26.348;2023-11-21T00:36:21;98509.81;;;10.62;73.23
34566;BME280;20803;42.676;26.348;2023-11-21T00:38:47;98493.66;;;10.53;73.66
34566;BME280;20803;42.676;26.348;2023-11-21T00:41:13;98495.34;;;10.47;73.47
34566;BME280;20803;42.676;26.348;2023-11-21T00:43:39;98504.56;;;10.40;73.83
34566;BME280;20803;42.676;26.348;2023-11-21T00:46:05;98513.69;;;10.37;73.45
34566;BME280;20803;42.676;26.348;2023-11-21T00:48:33;98523.25;;;9.99;74.62
34566;BME280;20803;42.676;26.348;2023-11-21T00:50:58;98518.63;;;9.85;76.56
34566;BME280;20803;42.676;26.348;2023-11-21T00:53:24;98526.59;;;9.83;77.23
34566;BME280;20803;42.676;26.348;2023-11-21T00:55:49;98524.16;;;9.89;76.91
34566;BME280;20803;42.676;26.348;2023-11-21T00:58:15;98517.91;;;9.77;78.18
34566;BME280;20803;42.676;26.348;2023-11-21T01:00:41;98514.34;;;9.81;78.53
34566;BME280;20803;42.676;26.348;2023-11-21T01:03:06;98504.28;;;9.94;78.10
34566;BME280;20803;42.676;26.348;2023-11-21T01:05:33;98503.84;;;9.99;77.86
34566;BME280;20803;42.676;26.348;2023-11-21T01:07:59;98510.44;;;10.12;77.04
34566;BME280;20803;42.676;26.348;2023-11-21T01:10:25;98504.78;;;10.19;76.60
34566;BME280;20803;42.676;26.348;2023-11-21T01:12:50;98508.34;;;10.23;76.31
34566;BME280;20803;42.676;26.348;2023-11-21T01:15:16;98508.59;;;10.32;75.67
34566;BME280;20803;42.676;26.348;2023-11-21T01:17:42;98512.16;;;10.36;75.05
34566;BME280;20803;42.676;26.348;2023-11-21T01:20:08;98507.31;;;10.40;74.65
34566;BME280;20803;42.676;26.348;2023-11-21T01:22:38;98508.75;;;10.52;73.88
34566;BME280;20803;42.676;26.348;2023-11-21T01:25:04;98507.66;;;10.46;73.97
34566;BME280;20803;42.676;26.348;2023-11-21T01:27:35;98504.47;;;10.47;73.57
34566;BME280;20803;42.676;26.348;2023-11-21T01:30:03;98506.88;;;10.45;73.31
34566;BME280;20803;42.676;26.348;2023-11-21T01:32:28;98501.28;;;10.49;73.08
34566;BME280;20803;42.676;26.348;2023-11-21T01:34:54;98504.41;;;10.51;73.16
34566;BME280;20803;42.676;26.348;2023-11-21T01:37:21;98500.34;;;10.59;72.88
34566;BME280;20803;42.676;26.348;2023-11-21T01:39:47;98491.47;;;10.68;72.32
34566;BME280;20803;42.676;26.348;2023-11-21T01:42:13;98504.41;;;10.51;73.64
34566;BME280;20803;42.676;26.348;2023-11-21T01:44:39;98491.84;;;10.43;73.93
34566;BME280;20803;42.676;26.348;2023-11-21T01:47:09;98495.66;;;10.52;73.63
34566;BME280;20803;42.676;26.348;2023-11-21T01:49:35;98494.50;;;10.50;73.66
34566;BME280;20803;42.676;26.348;2023-11-21T01:52:01;98489.69;;;10.54;73.20
34566;BME280;20803;42.676;26.348;2023-11-21T01:54:28;98493.53;;;10.33;74.30
34566;BME280;20803;42.676;26.348;2023-11-21T01:57:00;98500.13;;;10.09;75.72
34566;BME280;20803;42.676;26.348;2023-11-21T01:59:36;98493.13;;;9.97;76.46
34566;BME280;20803;42.676;26.348;2023-11-21T02:02:05;98482.38;;;10.03;76.95
34566;BME280;20803;42.676;26.348;2023-11-21T02:04:34;98488.75;;;10.00;76.57
34566;BME280;20803;42.676;26.348;2023-11-21T02:07:00;98471.66;;;10.05;76.59
34566;BME280;20803;42.676;26.348;2023-11-21T02:09:28;98475.53;;;10.11;76.47
34566;BME280;20803;42.676;26.348;2023-11-21T02:12:03;98473.56;;;10.08;76.31
34566;BME280;20803;42.676;26.348;2023-11-21T02:14:30;98474.81;;;10.03;76.45
34566;BME280;20803;42.676;26.348;2023-11-21T02:16:57;98473.97;;;10.06;76.65
34566;BME280;20803;42.676;26.348;2023-11-21T02:19:22;98478.66;;;10.13;76.52
34566;BME280;20803;42.676;26.348;2023-11-21T02:21:51;98487.72;;;10.21;75.25
34566;BME280;20803;42.676;26.348;2023-11-21T02:24:26;98484.16;;;10.20;74.68
34566;BME280;20803;42.676;26.348;2023-11-21T02:26:52;98493.28;;;10.21;74.95
34566;BME280;20803;42.676;26.348;2023-11-21T02:29:21;98499.41;;;10.05;75.72
34566;BME280;20803;42.676;26.348;2023-11-21T02:31:54;98505.81;;;9.98;76.35
34566;BME280;20803;42.676;26.348;2023-11-21T02:34:21;98508.28;;;9.89;76.47
34566;BME280;20803;42.676;26.348;2023-11-21T02:36:47;98512.41;;;9.29;80.58
34566;BME280;20803;42.676;26.348;2023-11-21T02:39:15;98505.44;;;9.14;83.39
34566;BME280;20803;42.676;26.348;2023-11-21T02:41:42;98503.28;;;9.32;82.34
34566;BME280;20803;42.676;26.348;2023-11-21T02:44:08;98497.25;;;9.41;81.93
34566;BME280;20803;42.676;26.348;2023-11-21T02:46:34;98496.41;;;9.48;81.14
34566;BME280;20803;42.676;26.348;2023-11-21T02:49:00;98499.53;;;9.53;80.46
34566;BME280;20803;42.676;26.348;2023-11-21T02:51:26;98504.28;;;9.56;80.07
34566;BME280;20803;42.676;26.348;2023-11-21T02:53:51;98512.47;;;9.67;79.32
34566;BME280;20803;42.676;26.348;2023-11-21T02:56:17;98520.69;;;9.77;78.14
34566;BME280;20803;42.676;26.348;2023-11-21T02:58:43;98521.03;;;9.83;78.00
34566;BME280;20803;42.676;26.348;2023-11-21T03:01:11;98520.28;;;9.79;77.98
34566;BME280;20803;42.676;26.348;2023-11-21T03:03:39;98525.72;;;9.90;77.72
34566;BME280;20803;42.676;26.348;2023-11-21T03:06:05;98524.00;;;10.03;76.80
34566;BME280;20803;42.676;26.348;2023-11-21T03:08:31;98518.31;;;10.13;76.60
34566;BME280;20803;42.676;26.348;2023-11-21T03:10:57;98522.25;;;10.20;75.74
34566;BME280;20803;42.676;26.348;2023-11-21T03:13:23;98531.75;;;10.22;75.25
34566;BME280;20803;42.676;26.348;2023-11-21T03:15:48;98531.66;;;10.29;74.96
34566;BME280;20803;42.676;26.348;2023-11-21T03:18:14;98526.22;;;10.18;74.82
34566;BME280;20803;42.676;26.348;2023-11-21T03:20:39;98530.63;;;10.12;75.25
34566;BME280;20803;42.676;26.348;2023-11-21T03:23:05;98528.28;;;10.11;74.90
34566;BME280;20803;42.676;26.348;2023-11-21T03:25:30;98538.13;;;10.15;74.52
34566;BME280;20803;42.676;26.348;2023-11-21T03:27:56;98532.25;;;10.10;74.71
34566;BME280;20803;42.676;26.348;2023-11-21T03:30:22;98532.41;;;9.96;75.18
34566;BME280;20803;42.676;26.348;2023-11-21T03:32:47;98535.19;;;9.96;75.54
34566;BME280;20803;42.676;26.348;2023-11-21T03:35:13;98530.72;;;10.05;75.18
34566;BME280;20803;42.676;26.348;2023-11-21T03:37:38;98523.25;;;9.99;75.75
34566;BME280;20803;42.676;26.348;2023-11-21T03:40:07;98521.59;;;10.05;75.31
34566;BME280;20803;42.676;26.348;2023-11-21T03:42:34;98526.78;;;10.03;75.46
34566;BME280;20803;42.676;26.348;2023-11-21T03:44:59;98525.97;;;10.06;75.45
34566;BME280;20803;42.676;26.348;2023-11-21T03:47:27;98525.53;;;10.07;74.93
34566;BME280;20803;42.676;26.348;2023-11-21T03:49:52;98526.28;;;10.11;74.56
34566;BME280;20803;42.676;26.348;2023-11-21T03:52:18;98523.09;;;10.13;74.66
34566;BME280;20803;42.676;26.348;2023-11-21T03:54:43;98528.50;;;10.27;73.77
34566;BME280;20803;42.676;26.348;2023-11-21T03:57:09;98529.34;;;10.24;73.81
34566;BME280;20803;42.676;26.348;2023-11-21T03:59:34;98530.16;;;10.21;73.82
34566;BME280;20803;42.676;26.348;2023-11-21T04:02:00;98534.56;;;10.18;73.76
34566;BME280;20803;42.676;26.348;2023-11-21T04:04:25;98538.19;;;10.12;74.30
34566;BME280;20803;42.676;26.348;2023-11-21T04:06:51;98545.00;;;10.04;74.67
34566;BME280;20803;42.676;26.348;2023-11-21T04:09:19;98554.59;;;9.99;75.31
34566;BME280;20803;42.676;26.348;2023-11-21T04:11:45;98545.53;;;9.92;76.00
34566;BME280;20803;42.676;26.348;2023-11-21T04:14:11;98555.97;;;9.77;77.23
34566;BME280;20803;42.676;26.348;2023-11-21T04:16:36;98558.00;;;9.73;77.92
34566;BME280;20803;42.676;26.348;2023-11-21T04:19:03;98554.84;;;9.71;78.56
34566;BME280;20803;42.676;26.348;2023-11-21T04:21:29;98555.41;;;9.52;79.77
34566;BME280;20803;42.676;26.348;2023-11-21T04:23:54;98551.28;;;9.70;78.63
34566;BME280;20803;42.676;26.348;2023-11-21T04:26:20;98559.69;;;9.63;79.14
34566;BME280;20803;42.676;26.348;2023-11-21T04:28:45;98546.69;;;9.53;79.61
34566;BME280;20803;42.676;26.348;2023-11-21T04:31:10;98545.84;;;9.60;79.49
34566;BME280;20803;42.676;26.348;2023-11-21T04:33:36;98547.06;;;9.55;79.24
34566;BME280;20803;42.676;26.348;2023-11-21T04:36:01;98542.78;;;9.47;80.29
34566;BME280;20803;42.676;26.348;2023-11-21T04:38:27;98537.91;;;9.58;79.45
34566;BME280;20803;42.676;26.348;2023-11-21T04:40:52;98541.88;;;9.61;79.12
34566;BME280;20803;42.676;26.348;2023-11-21T04:43:18;98543.91;;;9.57;79.32
34566;BME280;20803;42.676;26.348;2023-11-21T04:45:43;98549.00;;;9.62;79.29
34566;BME280;20803;42.676;26.348;2023-11-21T04:48:09;98539.88;;;9.61;79.28
34566;BME280;20803;42.676;26.348;2023-11-21T04:50:35;98542.59;;;9.68;78.89
34566;BME280;20803;42.676;26.348;2023-11-21T04:53:01;98537.00;;;9.72;78.24
34566;BME280;20803;42.676;26.348;2023-11-21T04:55:26;98540.97;;;9.74;78.50
34566;BME280;20803;42.676;26.348;2023-11-21T04:57:53;98548.44;;;9.77;78.25
34566;BME280;20803;42.676;26.348;2023-11-21T05:00:19;98552.75;;;9.82;77.49
34566;BME280;20803;42.676;26.348;2023-11-21T05:02:46;98550.38;;;9.84;77.30
34566;BME280;20803;42.676;26.348;2023-11-21T05:05:12;98550.75;;;9.86;77.30
34566;BME280;20803;42.676;26.348;2023-11-21T05:07:40;98550.38;;;9.84;77.28
34566;BME280;20803;42.676;26.348;2023-11-21T05:10:07;98548.84;;;9.80;77.06
34566;BME280;20803;42.676;26.348;2023-11-21T05:12:41;98552.47;;;9.73;77.07
34566;BME280;20803;42.676;26.348;2023-11-21T05:15:08;98552.88;;;9.71;77.29
34566;BME280;20803;42.676;26.348;2023-11-21T05:17:37;98550.53;;;9.66;77.78
34566;BME280;20803;42.676;26.348;2023-11-21T05:20:15;98554.69;;;9.44;79.13
34566;BME280;20803;42.676;26.348;2023-11-21T05:22:45;98555.13;;;9.39;80.23
34566;BME280;20803;42.676;26.348;2023-11-21T05:25:11;98547.38;;;9.64;79.41
34566;BME280;20803;42.676;26.348;2023-11-21T05:27:37;98554.91;;;9.64;78.88
34566;BME280;20803;42.676;26.348;2023-11-21T05:30:03;98556.03;;;9.73;79.44
34566;BME280;20803;42.676;26.348;2023-11-21T05:32:31;98555.50;;;9.86;78.59
34566;BME280;20803;42.676;26.348;2023-11-21T05:34:56;98556.59;;;9.95;77.71
34566;BME280;20803;42.676;26.348;2023-11-21T05:37:22;98557.56;;;10.15;76.15
34566;BME280;20803;42.676;26.348;2023-11-21T05:39:49;98558.94;;;10.38;74.86
34566;BME280;20803;42.676;26.348;2023-11-21T05:42:14;98563.38;;;10.66;72.38
34566;BME280;20803;42.676;26.348;2023-11-21T05:44:41;98568.94;;;10.92;70.36
34566;BME280;20803;42.676;26.348;2023-11-21T05:47:08;98565.56;;;11.08;68.74
34566;BME280;20803;42.676;26.348;2023-11-21T05:49:33;98557.75;;;11.26;67.61
34566;BME280;20803;42.676;26.348;2023-11-21T05:52:00;98553.66;;;11.58;65.99
34566;BME280;20803;42.676;26.348;2023-11-21T05:54:26;98549.00;;;11.98;62.94
34566;BME280;20803;42.676;26.348;2023-11-21T05:56:51;98549.59;;;12.09;62.42
34566;BME280;20803;42.676;26.348;2023-11-21T05:59:17;98548.03;;;12.47;60.32
34566;BME280;20803;42.676;26.348;2023-11-21T06:01:42;98546.88;;;12.84;58.62
34566;BME280;20803;42.676;26.348;2023-11-21T06:04:08;98555.53;;;13.26;56.75
34566;BME280;20803;42.676;26.348;2023-11-21T06:06:35;98555.63;;;13.71;54.88
34566;BME280;20803;42.676;26.348;2023-11-21T06:09:01;98560.75;;;13.89;54.46
34566;BME280;20803;42.676;26.348;2023-11-21T06:11:26;98570.47;;;13.84;53.84
34566;BME280;20803;42.676;26.348;2023-11-21T06:13:52;98577.25;;;13.67;54.00
34566;BME280;20803;42.676;26.348;2023-11-21T06:16:21;98584.16;;;13.46;54.46
34566;BME280;20803;42.676;26.348;2023-11-21T06:18:47;98576.09;;;13.32;55.04
34566;BME280;20803;42.676;26.348;2023-11-21T06:21:13;98582.22;;;13.27;55.38
34566;BME280;20803;42.676;26.348;2023-11-21T06:23:39;98582.38;;;13.20;55.93
34566;BME280;20803;42.676;26.348;2023-11-21T06:26:04;98585.88;;;13.04;57.23
34566;BME280;20803;42.676;26.348;2023-11-21T06:28:31;98588.94;;;12.74;59.82
34566;BME280;20803;42.676;26.348;2023-11-21T06:30:57;98586.97;;;12.51;60.70
34566;BME280;20803;42.676;26.348;2023-11-21T06:33:32;98583.81;;;12.09;62.61
34566;BME280;20803;42.676;26.348;2023-11-21T06:35:58;98582.91;;;11.93;63.88
34566;BME280;20803;42.676;26.348;2023-11-21T06:38:24;98583.16;;;11.78;63.32
34566;BME280;20803;42.676;26.348;2023-11-21T06:40:49;98579.81;;;11.64;64.10
34566;BME280;20803;42.676;26.348;2023-11-21T06:43:15;98577.53;;;11.32;67.42
34566;BME280;20803;42.676;26.348;2023-11-21T06:45:41;98585.88;;;11.32;68.86
34566;BME280;20803;42.676;26.348;2023-11-21T06:48:06;98583.25;;;11.21;70.27
34566;BME280;20803;42.676;26.348;2023-11-21T06:50:32;98577.69;;;11.21;70.33
34566;BME280;20803;42.676;26.348;2023-11-21T06:52:57;98584.06;;;11.18;70.91
34566;BME280;20803;42.676;26.348;2023-11-21T06:55:23;98586.47;;;11.16;70.52
34566;BME280;20803;42.676;26.348;2023-11-21T06:57:48;98579.06;;;11.10;71.63
34566;BME280;20803;42.676;26.348;2023-11-21T07:00:15;98579.38;;;11.15;71.42
34566;BME280;20803;42.676;26.348;2023-11-21T07:02:43;98578.81;;;11.24;71.16
34566;BME280;20803;42.676;26.348;2023-11-21T07:05:09;98585.06;;;11.31;71.12
34566;BME280;20803;42.676;26.348;2023-11-21T07:07:35;98588.34;;;11.26;71.37
34566;BME280;20803;42.676;26.348;2023-11-21T07:10:03;98586.34;;;11.27;71.56
34566;BME280;20803;42.676;26.348;2023-11-21T07:12:30;98577.53;;;11.32;71.29
34566;BME280;20803;42.676;26.348;2023-11-21T07:14:56;98570.31;;;11.34;71.56
34566;BME280;20803;42.676;26.348;2023-11-21T07:17:22;98570.78;;;11.29;72.03
34566;BME280;20803;42.676;26.348;2023-11-21T07:19:48;98571.53;;;11.33;72.21
34566;BME280;20803;42.676;26.348;2023-11-21T07:22:15;98574.75;;;11.32;72.09
34566;BME280;20803;42.676;26.348;2023-11-21T07:24:50;98581.44;;;11.34;72.56
34566;BME280;20803;42.676;26.348;2023-11-21T07:27:19;98586.56;;;11.39;72.63
34566;BME280;20803;42.676;26.348;2023-11-21T07:29:44;98580.19;;;11.39;72.18
34566;BME280;20803;42.676;26.348;2023-11-21T07:32:10;98581.94;;;11.53;71.33
34566;BME280;20803;42.676;26.348;2023-11-21T07:34:36;98576.72;;;11.58;70.41
34566;BME280;20803;42.676;26.348;2023-11-21T07:37:03;98574.66;;;11.62;70.36
34566;BME280;20803;42.676;26.348;2023-11-21T07:39:28;98578.94;;;11.67;70.95
34566;BME280;20803;42.676;26.348;2023-11-21T07:41:55;98590.38;;;11.72;71.37
34566;BME280;20803;42.676;26.348;2023-11-21T07:44:20;98598.22;;;11.81;71.50
34566;BME280;20803;42.676;26.348;2023-11-21T07:46:47;98593.78;;;11.84;71.47
34566;BME280;20803;42.676;26.348;2023-11-21T07:49:12;98595.34;;;11.88;72.23
34566;BME280;20803;42.676;26.348;2023-11-21T07:51:43;98599.63;;;11.93;71.89
34566;BME280;20803;42.676;26.348;2023-11-21T07:54:09;98593.16;;;11.99;73.46
34566;BME280;20803;42.676;26.348;2023-11-21T07:56:35;98606.50;;;12.08;72.39
34566;BME280;20803;42.676;26.348;2023-11-21T07:59:00;98606.88;;;12.10;70.53
34566;BME280;20803;42.676;26.348;2023-11-21T08:01:26;98602.47;;;12.12;70.66
34566;BME280;20803;42.676;26.348;2023-11-21T08:03:54;98614.25;;;12.20;69.87
34566;BME280;20803;42.676;26.348;2023-11-21T08:06:23;98610.91;;;12.29;70.88
34566;BME280;20803;42.676;26.348;2023-11-21T08:08:49;98604.72;;;12.41;72.33
34566;BME280;20803;42.676;26.348;2023-11-21T08:11:14;98621.31;;;12.48;72.72
34566;BME280;20803;42.676;26.348;2023-11-21T08:13:40;98614.66;;;12.62;73.00
34566;BME280;20803;42.676;26.348;2023-11-21T08:16:06;98606.78;;;12.76;72.69
34566;BME280;20803;42.676;26.348;2023-11-21T08:18:32;98605.72;;;12.90;70.32
34566;BME280;20803;42.676;26.348;2023-11-21T08:20:59;98597.19;;;12.97;68.00
34566;BME280;20803;42.676;26.348;2023-11-21T08:23:25;98587.63;;;12.98;67.77
34566;BME280;20803;42.676;26.348;2023-11-21T08:25:54;98592.97;;;13.09;66.73
34566;BME280;20803;42.676;26.348;2023-11-21T08:28:20;98594.41;;;13.17;64.73
34566;BME280;20803;42.676;26.348;2023-11-21T08:30:51;98593.09;;;13.21;63.71
34566;BME280;20803;42.676;26.348;2023-11-21T08:33:17;98599.13;;;13.36;63.61
34566;BME280;20803;42.676;26.348;2023-11-21T08:35:43;98594.63;;;13.58;62.40
34566;BME280;20803;42.676;26.348;2023-11-21T08:38:08;98597.41;;;13.74;62.22
34566;BME280;20803;42.676;26.348;2023-11-21T08:40:35;98572.72;;;13.89;60.55
34566;BME280;20803;42.676;26.348;2023-11-21T08:43:00;98574.16;;;14.10;59.40
34566;BME280;20803;42.676;26.348;2023-11-21T08:45:26;98567.78;;;14.26;58.58
34566;BME280;20803;42.676;26.348;2023-11-21T08:47:52;98575.69;;;14.43;58.99
34566;BME280;20803;42.676;26.348;2023-11-21T08:50:17;98564.25;;;14.67;58.12
34566;BME280;20803;42.676;26.348;2023-11-21T08:52:44;98556.53;;;14.71;56.77
34566;BME280;20803;42.676;26.348;2023-11-21T08:55:11;98552.63;;;14.68;56.10
34566;BME280;20803;42.676;26.348;2023-11-21T08:57:38;98551.28;;;14.73;55.37
34566;BME280;20803;42.676;26.348;2023-11-21T09:00:06;98557.53;;;14.77;55.88
34566;BME280;20803;42.676;26.348;2023-11-21T09:02:37;98552.00;;;15.02;55.47
34566;BME280;20803;42.676;26.348;2023-11-21T09:05:04;98546.41;;;15.15;55.21
34566;BME280;20803;42.676;26.348;2023-11-21T09:07:30;98542.81;;;15.27;54.21
34566;BME280;20803;42.676;26.348;2023-11-21T09:09:56;98539.03;;;15.33;51.73
34566;BME280;20803;42.676;26.348;2023-11-21T09:12:21;98531.28;;;15.50;51.07
34566;BME280;20803;42.676;26.348;2023-11-21T09:14:47;98530.84;;;15.64;51.07
34566;BME280;20803;42.676;26.348;2023-11-21T09:17:13;98531.03;;;15.70;50.29
34566;BME280;20803;42.676;26.348;2023-11-21T09:19:40;98529.16;;;15.67;50.36
34566;BME280;20803;42.676;26.348;2023-11-21T09:22:06;98518.50;;;15.62;51.85
34566;BME280;20803;42.676;26.348;2023-11-21T09:24:32;98517.25;;;15.75;51.96
34566;BME280;20803;42.676;26.348;2023-11-21T09:26:57;98520.03;;;15.88;50.74
34566;BME280;20803;42.676;26.348;2023-11-21T09:29:23;98517.31;;;15.97;49.96
34566;BME280;20803;42.676;26.348;2023-11-21T09:31:49;98515.91;;;16.14;49.67
34566;BME280;20803;42.676;26.348;2023-11-21T09:34:16;98505.97;;;16.22;49.24
34566;BME280;20803;42.676;26.348;2023-11-21T09:36:45;98499.13;;;16.23;49.44
34566;BME280;20803;42.676;26.348;2023-11-21T09:39:10;98505.72;;;16.30;49.23
34566;BME280;20803;42.676;26.348;2023-11-21T09:41:51;98501.97;;;16.45;48.61
34566;BME280;20803;42.676;26.348;2023-11-21T09:44:27;98501.56;;;16.56;47.36
34566;BME280;20803;42.676;26.348;2023-11-21T09:46:59;98496.88;;;16.75;46.94
34566;BME280;20803;42.676;26.348;2023-11-21T09:49:26;98489.66;;;16.95;46.98
34566;BME280;20803;42.676;26.348;2023-11-21T09:51:53;98491.88;;;17.10;46.52
34566;BME280;20803;42.676;26.348;2023-11-21T09:54:20;98477.72;;;17.22;46.81
34566;BME280;20803;42.676;26.348;2023-11-21T09:56:47;98481.38;;;17.32;46.84
34566;BME280;20803;42.676;26.348;2023-11-21T09:59:13;98472.19;;;17.50;46.24
34566;BME280;20803;42.676;26.348;2023-11-21T10:01:41;98458.84;;;17.72;45.76
34566;BME280;20803;42.676;26.348;2023-11-21T10:04:08;98464.00;;;17.92;44.80
34566;BME280;20803;42.676;26.348;2023-11-21T10:06:40;98453.06;;;18.03;44.43
34566;BME280;20803;42.676;26.348;2023-11-21T10:09:10;98449.00;;;18.22;44.26
34566;BME280;20803;42.676;26.348;2023-11-21T10:11:41;98452.38;;;18.44;43.39
34566;BME280;20803;42.676;26.348;2023-11-21T10:14:08;98450.66;;;18.56;42.65
34566;BME280;20803;42.676;26.348;2023-11-21T10:16:36;98450.69;;;18.19;42.48
34566;BME280;20803;42.676;26.348;2023-11-21T10:19:03;98446.19;;;18.04;43.25
34566;BME280;20803;42.676;26.348;2023-11-21T10:21:32;98449.31;;;18.06;42.97
34566;BME280;20803;42.676;26.348;2023-11-21T10:23:58;98444.94;;;17.96;43.47
34566;BME280;20803;42.676;26.348;2023-11-21T10:26:26;98444.00;;;18.08;43.53
34566;BME280;20803;42.676;26.348;2023-11-21T10:28:56;98429.13;;;18.35;43.21
34566;BME280;20803;42.676;26.348;2023-11-21T10:31:23;98433.91;;;18.71;41.80
34566;BME280;20803;42.676;26.348;2023-11-21T10:33:50;98426.50;;;18.82;41.66
34566;BME280;20803;42.676;26.348;2023-11-21T10:36:26;98424.81;;;18.76;41.37
34566;BME280;20803;42.676;26.348;2023-11-21T10:38:52;98423.25;;;18.75;41.75
34566;BME280;20803;42.676;26.348;2023-11-21T10:41:18;98418.38;;;18.84;41.70
34566;BME280;20803;42.676;26.348;2023-11-21T10:43:44;98420.03;;;18.58;42.18
34566;BME280;20803;42.676;26.348;2023-11-21T10:46:10;98413.81;;;18.87;41.53
34566;BME280;20803;42.676;26.348;2023-11-21T10:48:35;98415.94;;;19.01;41.18
34566;BME280;20803;42.676;26.348;2023-11-21T10:51:06;98414.72;;;19.26;40.52
34566;BME280;20803;42.676;26.348;2023-11-21T10:53:32;98414.81;;;19.08;41.06
34566;BME280;20803;42.676;26.348;2023-11-21T10:56:06;98405.38;;;19.20;40.33
34566;BME280;20803;42.676;26.348;2023-11-21T10:58:35;98402.59;;;19.11;40.53
34566;BME280;20803;42.676;26.348;2023-11-21T11:01:02;98394.97;;;19.02;40.95
34566;BME280;20803;42.676;26.348;2023-11-21T11:03:31;98390.88;;;19.03;41.13
34566;BME280;20803;42.676;26.348;2023-11-21T11:05:59;98392.66;;;18.91;41.31
34566;BME280;20803;42.676;26.348;2023-11-21T11:08:26;98394.09;;;18.87;41.83
34566;BME280;20803;42.676;26.348;2023-11-21T11:10:52;98376.75;;;18.88;42.16
34566;BME280;20803;42.676;26.348;2023-11-21T11:13:18;98373.41;;;18.99;42.49
34566;BME280;20803;42.676;26.348;2023-11-21T11:15:47;98376.75;;;19.12;42.36
34566;BME280;20803;42.676;26.348;2023-11-21T11:18:14;98372.47;;;19.50;41.64
34566;BME280;20803;42.676;26.348;2023-11-21T11:20:42;98373.06;;;19.54;42.00
34566;BME280;20803;42.676;26.348;2023-11-21T11:26:12;98367.44;;;19.92;41.46
34566;BME280;20803;42.676;26.348;2023-11-21T11:28:47;98362.00;;;20.18;41.05
34566;BME280;20803;42.676;26.348;2023-11-21T11:31:33;98357.63;;;20.46;40.90
34566;BME280;20803;42.676;26.348;2023-11-21T11:34:29;98355.78;;;20.29;40.68
34566;BME280;20803;42.676;26.348;2023-11-21T11:37:03;98348.22;;;19.67;41.93
34566;BME280;20803;42.676;26.348;2023-11-21T11:39:50;98343.16;;;19.56;42.41
34566;BME280;20803;42.676;26.348;2023-11-21T11:42:19;98349.78;;;19.44;42.60
34566;BME280;20803;42.676;26.348;2023-11-21T11:44:49;98335.69;;;19.68;42.21
34566;BME280;20803;42.676;26.348;2023-11-21T11:50:08;98347.09;;;19.88;42.68
34566;BME280;20803;42.676;26.348;2023-11-21T11:52:44;98329.63;;;19.46;43.99
34566;BME280;20803;42.676;26.348;2023-11-21T11:55:14;98328.44;;;19.28;44.21
34566;BME280;20803;42.676;26.348;2023-11-21T11:57:43;98320.59;;;19.32;44.69
34566;BME280;20803;42.676;26.348;2023-11-21T12:02:57;98323.16;;;19.21;45.03
34566;BME280;20803;42.676;26.348;2023-11-21T12:05:25;98314.34;;;19.52;43.93
34566;BME280;20803;42.676;26.348;2023-11-21T12:07:57;98311.59;;;19.81;43.55
34566;BME280;20803;42.676;26.348;2023-11-21T12:10:27;98307.03;;;19.99;42.96
34566;BME280;20803;42.676;26.348;2023-11-21T12:12:55;98306.56;;;20.00;42.85
34566;BME280;20803;42.676;26.348;2023-11-21T12:15:22;98298.47;;;19.93;43.13
34566;BME280;20803;42.676;26.348;2023-11-21T12:17:48;98294.00;;;19.87;42.89
34566;BME280;20803;42.676;26.348;2023-11-21T12:20:16;98299.31;;;19.55;43.78
34566;BME280;20803;42.676;26.348;2023-11-21T12:25:13;98298.16;;;19.62;43.98
34566;BME280;20803;42.676;26.348;2023-11-21T12:27:42;98300.81;;;19.80;43.76
34566;BME280;20803;42.676;26.348;2023-11-21T12:30:08;98300.22;;;20.05;43.17
34566;BME280;20803;42.676;26.348;2023-11-21T12:32:41;98295.84;;;19.90;43.62
34566;BME280;20803;42.676;26.348;2023-11-21T12:35:08;98296.38;;;19.64;44.60
34566;BME280;20803;42.676;26.348;2023-11-21T12:37:35;98290.19;;;19.75;44.43
34566;BME280;20803;42.676;26.348;2023-11-21T12:40:01;98295.16;;;19.95;43.96
34566;BME280;20803;42.676;26.348;2023-11-21T12:42:27;98301.38;;;19.99;43.54
34566;BME280;20803;42.676;26.348;2023-11-21T12:45:25;98294.28;;;19.89;43.59
34566;BME280;20803;42.676;26.348;2023-11-21T12:48:01;98293.09;;;19.66;43.94
34566;BME280;20803;42.676;26.348;2023-11-21T12:50:30;98290.50;;;19.38;44.72
34566;BME280;20803;42.676;26.348;2023-11-21T12:53:00;98289.88;;;19.34;45.00
34566;BME280;20803;42.676;26.348;2023-11-21T12:55:30;98296.78;;;19.33;44.63
34566;BME280;20803;42.676;26.348;2023-11-21T12:57:56;98293.47;;;19.20;44.95
34566;BME280;20803;42.676;26.348;2023-11-21T13:00:33;98289.00;;;18.90;45.34
34566;BME280;20803;42.676;26.348;2023-11-21T13:03:03;98295.00;;;18.74;46.28
34566;BME280;20803;42.676;26.348;2023-11-21T13:05:34;98295.63;;;18.78;46.18